Time;durP1;ratioP1;P1;durP2;ratioP2;P2;SDS_P1;SDS_P2;PMS_P1;PMS_P2;Temp;Humidity;BMP_temperature;BMP_pressure;BME280_temperature;BME280_humidity;BME280_pressure;Samples;Min_cycle;Max_cycle;Signal;HPM_P1;HPM_P2
2022/05/25 00:00:03;;;;;;;8.38;3.45;;;;;;;9.84;100.00;101336.09;7388108;19;20033;-75
2022/05/25 00:02:33;;;;;;;9.55;4.75;;;;;;;9.85;100.00;101332.59;7388319;19;20029;-75
2022/05/25 00:05:04;;;;;;;7.20;3.33;;;;;;;9.83;100.00;101332.56;7387820;19;20038;-74
2022/05/25 00:07:37;;;;;;;9.73;3.88;;;;;;;9.82;100.00;101332.53;7388566;19;20338;-75
2022/05/25 00:10:08;;;;;;;7.43;3.67;;;;;;;9.75;100.00;101338.47;7385446;19;20014;-75
2022/05/25 00:12:38;;;;;;;9.52;4.50;;;;;;;9.74;100.00;101334.97;7387072;19;20015;-74
2022/05/25 00:15:11;;;;;;;7.68;3.75;;;;;;;9.69;100.00;101333.09;7389270;19;20013;-76
2022/05/25 00:17:41;;;;;;;5.55;3.15;;;;;;;9.66;100.00;101340.88;7390016;19;20017;-75
2022/05/25 00:20:10;;;;;;;7.18;3.55;;;;;;;9.65;100.00;101334.75;7388304;19;20022;-75
2022/05/25 00:22:45;;;;;;;6.45;3.90;;;;;;;9.63;100.00;101343.41;7386642;19;20018;-74
2022/05/25 00:25:19;;;;;;;7.65;3.38;;;;;;;9.64;100.00;101332.09;7388476;19;20018;-75
2022/05/25 00:27:49;;;;;;;5.43;2.97;;;;;;;9.67;100.00;101340.03;7389106;19;20015;-75
2022/05/25 00:30:21;;;;;;;7.25;3.13;;;;;;;9.69;100.00;101340.94;7388349;19;20046;-75
2022/05/25 00:32:52;;;;;;;8.75;3.50;;;;;;;9.75;100.00;101343.72;7388868;19;20018;-76
2022/05/25 00:35:24;;;;;;;6.65;3.15;;;;;;;9.77;100.00;101349.88;7389385;19;20014;-74
2022/05/25 00:37:57;;;;;;;7.50;3.22;;;;;;;9.76;100.00;101349.00;7387523;19;20021;-76
2022/05/25 00:40:31;;;;;;;7.70;3.60;;;;;;;9.76;100.00;101342.88;7389639;19;20237;-74
2022/05/25 00:43:01;;;;;;;7.75;3.25;;;;;;;9.74;100.00;101344.56;7387710;19;20014;-75
2022/05/25 00:45:33;;;;;;;6.28;3.10;;;;;;;9.74;100.00;101344.56;7388833;19;20006;-75
2022/05/25 00:48:08;;;;;;;7.75;3.30;;;;;;;9.71;100.00;101349.72;7387394;19;20015;-72
2022/05/25 00:53:25;;;;;;;6.75;3.25;;;;;;;9.77;100.00;101360.34;7386423;19;20018;-75
2022/05/25 00:55:57;;;;;;;8.60;3.50;;;;;;;9.81;100.00;101356.97;7388494;19;20016;-75
2022/05/25 00:58:27;;;;;;;7.40;3.45;;;;;;;9.84;100.00;101370.13;7387768;19;20015;-75
2022/05/25 01:00:57;;;;;;;6.97;3.10;;;;;;;9.87;100.00;101367.59;7387108;19;20472;-75
2022/05/25 01:03:27;;;;;;;7.32;3.15;;;;;;;9.88;100.00;101355.38;7375867;19;20031;-75
2022/05/25 01:06:04;;;;;;;8.85;3.58;;;;;;;9.94;100.00;101358.16;7377131;19;20022;-74
2022/05/25 01:08:47;;;;;;;9.65;3.60;;;;;;;9.99;100.00;101362.66;7378669;19;20018;-75
2022/05/25 01:11:33;;;;;;;9.43;3.60;;;;;;;10.04;100.00;101363.66;7380029;19;20040;-75
2022/05/25 01:14:15;;;;;;;9.85;4.03;;;;;;;10.21;100.00;101368.44;7380572;19;20027;-75
2022/05/25 01:16:51;;;;;;;11.65;4.85;;;;;;;10.21;100.00;101355.31;7379404;19;20023;-75
2022/05/25 01:19:49;;;;;;;10.40;4.88;;;;;;;10.23;100.00;101356.25;7380164;19;20323;-74
2022/05/25 01:22:47;;;;;;;12.88;5.60;;;;;;;10.24;100.00;101358.91;7380243;19;20050;-74
2022/05/25 01:25:34;;;;;;;16.20;5.60;;;;;;;10.25;100.00;101359.78;7378818;19;20007;-74
2022/05/25 01:28:17;;;;;;;14.23;6.05;;;;;;;10.32;100.00;101361.69;7379510;19;20043;-72
2022/05/25 01:30:54;;;;;;;14.23;6.78;;;;;;;10.34;100.00;101366.13;7379296;19;20043;-72
2022/05/25 01:33:30;;;;;;;13.30;6.03;;;;;;;10.36;100.00;101358.28;7377742;19;20179;-72
2022/05/25 01:36:08;;;;;;;13.93;6.70;;;;;;;10.42;100.00;101366.25;7380729;19;20029;-72
2022/05/25 01:38:49;;;;;;;12.88;6.75;;;;;;;10.39;100.00;101374.09;7379423;19;20010;-72
2022/05/25 01:41:23;;;;;;;15.30;6.32;;;;;;;10.42;100.00;101368.88;7378795;19;20014;-71
2022/05/25 01:43:58;;;;;;;14.90;8.02;;;;;;;10.46;100.00;101371.59;7375628;19;20082;-71
2022/05/25 01:46:34;;;;;;;15.95;7.57;;;;;;;10.47;100.00;101372.50;7380701;19;20013;-72
2022/05/25 01:49:08;;;;;;;16.17;7.32;;;;;;;10.46;100.00;101369.00;7377497;19;20018;-73
2022/05/25 01:51:41;;;;;;;;;;;;;;;10.48;100.00;101375.16;7380926;19;20010;-72
2022/05/25 01:54:15;;;;;;;18.00;7.70;;;;;;;10.45;100.00;101377.72;7377438;19;20368;-75
2022/05/25 01:56:48;;;;;;;;;;;;;;;10.42;100.00;101379.38;7381855;19;20023;-75
2022/05/25 01:59:20;;;;;;;14.80;7.40;;;;;;;10.37;100.00;101386.28;7378030;19;19923;-74
2022/05/25 02:04:19;;;;;;;21.65;8.55;;;;;;;10.34;100.00;101380.97;7379880;19;20014;-75
2022/05/25 02:04:46;;;;;;;16.10;7.20;;;;;;;10.31;100.00;101380.91;7379561;19;20461;-75
2022/05/25 02:07:29;;;;;;;19.20;8.60;;;;;;;10.28;100.00;101388.69;7378885;19;20022;-72
2022/05/25 02:10:24;;;;;;;16.08;8.68;;;;;;;10.29;100.00;101382.59;7379075;19;20026;-75
2022/05/25 02:13:11;;;;;;;20.13;8.43;;;;;;;10.26;100.00;101380.78;7378557;19;20046;-74
2022/05/25 02:15:49;;;;;;;19.15;9.15;;;;;;;10.21;100.00;101382.41;7377097;19;20281;-72
2022/05/25 02:18:33;;;;;;;18.17;8.60;;;;;;;10.16;100.00;101381.41;7378297;19;20018;-72
2022/05/25 02:21:06;;;;;;;;;;;;;;;10.13;100.00;101384.84;7377852;19;20055;-71
2022/05/25 02:23:45;;;;;;;17.10;8.88;;;;;;;10.11;100.00;101386.53;7376858;19;20327;-72
2022/05/25 02:26:20;;;;;;;15.23;8.25;;;;;;;10.11;100.00;101389.16;7380254;19;20015;-74
2022/05/25 02:28:56;;;;;;;15.38;8.45;;;;;;;10.11;100.00;101388.25;7377060;19;20036;-75
2022/05/25 02:31:30;;;;;;;18.13;8.68;;;;;;;10.06;100.00;101395.13;7382919;19;20018;-75
2022/05/25 02:34:05;;;;;;;16.42;8.50;;;;;;;10.03;100.00;101392.44;7378656;19;20040;-74
2022/05/25 02:36:38;;;;;;;17.70;9.13;;;;;;;9.99;100.00;101390.59;7377690;19;20011;-75
2022/05/25 02:39:10;;;;;;;20.33;8.65;;;;;;;9.95;100.00;101388.75;7377435;19;20010;-72
2022/05/25 02:41:48;;;;;;;17.33;9.35;;;;;;;9.90;100.00;101388.63;7377851;19;20003;-76
2022/05/25 02:44:18;;;;;;;20.98;9.13;;;;;;;9.86;100.00;101381.53;7373792;19;20007;-72
2022/05/25 02:46:49;;;;;;;17.77;8.77;;;;;;;9.83;100.00;101386.69;7374481;19;20020;-73
2022/05/25 02:49:21;;;;;;;18.23;7.90;;;;;;;9.79;100.00;101382.22;7374786;19;20025;-73
2022/05/25 02:51:51;;;;;;;15.23;7.50;;;;;;;9.75;100.00;101390.88;7377932;19;20010;-72
2022/05/25 02:54:24;;;;;;;15.65;8.00;;;;;;;9.69;100.00;101394.22;7374970;19;20019;-72
2022/05/25 02:56:54;;;;;;;16.67;7.22;;;;;;;9.63;100.00;101395.78;7378173;19;21217;-72
2022/05/25 02:59:27;;;;;;;17.95;8.65;;;;;;;9.58;100.00;101393.03;7374490;19;20006;-71
2022/05/25 03:01:57;;;;;;;19.10;8.95;;;;;;;9.56;100.00;101407.84;7376700;19;20019;-72
2022/05/25 03:04:30;;;;;;;19.08;8.88;;;;;;;9.55;100.00;101395.59;7377166;19;20495;-72
2022/05/25 03:07:00;;;;;;;18.80;9.38;;;;;;;9.54;100.00;101404.28;7376765;19;20037;-72
2022/05/25 03:09:30;;;;;;;18.00;8.00;;;;;;;9.56;100.00;101412.19;7378721;19;20014;-74
2022/05/25 03:12:02;;;;;;;13.95;8.45;;;;;;;9.57;100.00;101409.59;7378474;19;20377;-74
2022/05/25 03:14:32;;;;;;;21.08;9.93;;;;;;;9.65;100.00;101417.66;7378204;19;20011;-73
2022/05/25 03:17:09;;;;;;;21.67;9.52;;;;;;;9.65;100.00;101417.66;7381982;19;20002;-74
2022/05/25 03:19:42;;;;;;;19.25;9.23;;;;;;;9.70;100.00;101421.28;7377749;19;20021;-72
2022/05/25 03:22:12;;;;;;;16.52;9.52;;;;;;;9.67;100.00;101426.44;7379553;19;20020;-71
2022/05/25 03:24:42;;;;;;;20.88;9.68;;;;;;;9.63;100.00;101429.84;7375999;19;20018;-72
2022/05/25 03:27:13;;;;;;;15.82;9.02;;;;;;;9.67;100.00;101431.69;7377230;19;20017;-72
2022/05/25 03:29:43;;;;;;;19.80;9.88;;;;;;;9.66;100.00;101435.16;7375419;19;20022;-72
2022/05/25 03:32:14;;;;;;;19.70;9.63;;;;;;;9.70;100.00;101435.28;7379286;19;20018;-72
2022/05/25 03:34:50;;;;;;;22.63;9.93;;;;;;;9.76;100.00;101437.16;7377846;19;20017;-72
2022/05/25 03:37:20;;;;;;;18.77;10.43;;;;;;;9.81;100.00;101432.94;7379503;19;20086;-73
2022/05/25 03:39:50;;;;;;;22.58;10.73;;;;;;;9.82;100.00;101435.59;7378138;19;20023;-74
2022/05/25 03:42:22;;;;;;;18.70;10.15;;;;;;;9.89;100.00;101433.13;7379164;19;20010;-71
2022/05/25 03:44:52;;;;;;;24.52;11.68;;;;;;;9.92;100.00;101444.56;7376777;19;20019;-75
2022/05/25 03:47:22;;;;;;;25.30;11.23;;;;;;;9.97;100.00;101447.31;7377386;19;20094;-74
2022/05/25 03:49:54;;;;;;;22.60;11.57;;;;;;;9.99;100.00;101440.38;7378299;19;20090;-74
2022/05/25 03:52:25;;;;;;;18.73;10.85;;;;;;;10.04;100.00;101437.03;7376653;19;20052;-72
2022/05/25 03:54:55;;;;;;;25.17;12.45;;;;;;;10.08;100.00;101438.88;7374515;19;20014;-72
2022/05/25 03:57:25;;;;;;;26.77;12.43;;;;;;;10.18;100.00;101433.84;7377401;19;20011;-72
2022/05/25 03:59:55;;;;;;;20.95;12.45;;;;;;;10.21;100.00;101444.44;7374903;19;20053;-71
2022/05/25 04:02:25;;;;;;;25.13;12.63;;;;;;;10.27;100.00;101436.72;7375658;19;20082;-72
2022/05/25 04:05:10;;;;;;;25.42;12.27;;;;;;;10.30;100.00;101432.44;7375707;19;20475;-72
2022/05/25 04:07:43;;;;;;;26.48;11.57;;;;;;;10.34;100.00;101439.53;7377436;19;20367;-72
2022/05/25 04:10:16;;;;;;;22.75;11.77;;;;;;;10.43;100.00;101449.31;7377798;19;20518;-73
2022/05/25 04:12:49;;;;;;;;;;;;;;;10.47;100.00;101444.19;7377469;19;20050;-73
2022/05/25 04:15:22;;;;;;;25.20;11.50;;;;;;;10.52;100.00;101448.66;7376164;19;20005;-75
2022/05/25 04:17:52;;;;;;;24.55;11.82;;;;;;;10.53;100.00;101451.31;7380063;19;20023;-72
2022/05/25 04:20:26;;;;;;;27.17;11.93;;;;;;;10.56;100.00;101442.63;7373212;19;20023;-72
2022/05/25 04:22:56;;;;;;;28.02;11.73;;;;;;;10.59;100.00;101446.22;7375723;19;20031;-72
2022/05/25 04:25:27;;;;;;;23.35;11.45;;;;;;;10.60;100.00;101442.72;7373011;19;20039;-73
2022/05/25 04:27:59;;;;;;;20.92;11.30;;;;;;;10.62;100.00;101448.00;7374433;19;20040;-73
2022/05/25 04:30:31;;;;;;;21.98;12.18;;;;;;;10.61;100.00;101443.63;7374773;19;20036;-72
2022/05/25 04:33:01;;;;;;;23.55;11.35;;;;;;;10.60;100.00;101444.47;7376540;19;20028;-72
2022/05/25 04:35:33;;;;;;;24.83;12.57;;;;;;;10.57;100.00;101442.66;7373590;19;20500;-72
2022/05/25 04:38:03;;;;;;;21.88;10.98;;;;;;;10.56;100.00;101438.28;7376395;19;20015;-72
2022/05/25 04:40:36;;;;;;;25.60;11.88;;;;;;;10.56;100.00;101442.63;7381607;19;20019;-72
2022/05/25 04:43:09;;;;;;;21.33;11.95;;;;;;;10.59;100.00;101445.31;7379774;19;20018;-72
2022/05/25 04:45:41;;;;;;;23.60;12.13;;;;;;;10.64;100.00;101439.31;7377923;19;20153;-73
2022/05/25 04:48:12;;;;;;;26.02;12.25;;;;;;;10.79;100.00;101444.03;7379412;19;20023;-73
2022/05/25 04:50:47;;;;;;;23.05;11.90;;;;;;;10.90;100.00;101442.53;7380908;19;20017;-73
2022/05/25 04:53:19;;;;;;;20.80;12.23;;;;;;;10.96;100.00;101434.78;7376191;19;20022;-72
2022/05/25 04:58:34;;;;;;;24.67;11.70;;;;;;;11.08;100.00;101436.78;7382314;19;20031;-73
2022/05/25 05:01:06;;;;;;;22.73;11.35;;;;;;;11.18;100.00;101433.50;7382999;19;20490;-72
2022/05/25 05:03:37;;;;;;;23.45;12.10;;;;;;;11.23;100.00;101426.59;7379466;19;20022;-73
2022/05/25 05:06:11;;;;;;;22.00;10.45;;;;;;;11.43;100.00;101430.50;7379903;19;20428;-73
2022/05/25 05:08:42;;;;;;;21.63;11.73;;;;;;;11.55;100.00;101436.78;7382150;19;20061;-72
2022/05/25 05:11:13;;;;;;;23.45;11.75;;;;;;;11.70;100.00;101445.84;7381072;19;20495;-72
2022/05/25 05:13:44;;;;;;;21.40;10.95;;;;;;;11.85;100.00;101433.88;7383773;19;20018;-73
2022/05/25 05:16:16;;;;;;;28.75;12.07;;;;;;;11.89;100.00;101440.97;7383296;19;20535;-72
2022/05/25 05:18:47;;;;;;;22.83;11.45;;;;;;;11.99;100.00;101443.78;7382795;19;20007;-73
2022/05/25 05:21:20;;;;;;;22.58;11.05;;;;;;;12.10;100.00;101438.69;7383222;19;20019;-73
2022/05/25 05:23:50;;;;;;;19.92;10.32;;;;;;;12.18;100.00;101444.97;7382431;19;20026;-72
2022/05/25 05:26:20;;;;;;;24.10;10.80;;;;;;;12.09;100.00;101440.44;7382135;19;20018;-72
2022/05/25 05:28:53;;;;;;;21.77;10.95;;;;;;;12.16;100.00;101440.53;7383781;19;20094;-73
2022/05/25 05:31:23;;;;;;;18.75;10.82;;;;;;;11.99;100.00;101442.88;7384389;19;20025;-72
2022/05/25 05:33:53;;;;;;;21.27;11.80;;;;;;;11.94;100.00;101450.69;7383235;19;20018;-72
2022/05/25 05:36:28;;;;;;;24.55;12.00;;;;;;;11.92;100.00;101447.16;7381166;19;20010;-72
2022/05/25 05:39:01;;;;;;;25.30;11.73;;;;;;;12.14;100.00;101447.53;7380062;19;20433;-73
2022/05/25 05:41:38;;;;;;;23.30;11.90;;;;;;;12.00;100.00;101445.53;7378541;19;20502;-73
2022/05/25 05:44:10;;;;;;;25.98;13.32;;;;;;;12.00;100.00;101450.81;7382124;19;20037;-73
2022/05/25 05:46:42;;;;;;;25.42;14.43;;;;;;;11.88;100.00;101449.69;7382030;19;20097;-73
2022/05/25 05:49:13;;;;;;;25.23;12.43;;;;;;;12.07;100.00;101446.53;7379588;19;20015;-73
2022/05/25 05:51:47;;;;;;;29.65;13.73;;;;;;;12.12;100.00;101460.63;7383224;19;20078;-72
2022/05/25 05:54:18;;;;;;;24.45;14.48;;;;;;;12.21;100.00;101455.53;7381544;19;20022;-72
2022/05/25 05:56:48;;;;;;;31.77;16.42;;;;;;;12.07;100.00;101457.94;7382415;19;20016;-72
2022/05/25 05:59:18;;;;;;;33.78;16.52;;;;;;;12.25;100.00;101451.22;7383364;19;20022;-73
2022/05/25 06:01:48;;;;;;;31.27;16.75;;;;;;;12.33;100.00;101460.09;7380943;19;20021;-72
2022/05/25 06:04:18;;;;;;;29.88;16.77;;;;;;;12.44;100.00;101458.53;7383459;19;20022;-72
2022/05/25 06:06:52;;;;;;;33.90;17.50;;;;;;;12.44;100.00;101463.78;7381598;19;20151;-71
2022/05/25 06:09:22;;;;;;;35.72;16.55;;;;;;;12.45;100.00;101468.19;7381807;19;20014;-71
2022/05/25 06:11:52;;;;;;;31.77;17.50;;;;;;;12.66;100.00;101476.38;7381284;19;20015;-73
2022/05/25 06:14:22;;;;;;;36.65;18.02;;;;;;;12.67;100.00;101474.63;7382712;19;20347;-71
2022/05/25 06:19:37;;;;;;;30.60;16.52;;;;;;;12.74;100.00;101469.47;7381011;19;20026;-71
2022/05/25 06:22:12;;;;;;;34.92;17.15;;;;;;;12.81;100.00;101469.56;7381615;19;20018;-71
2022/05/25 06:24:45;;;;;;;31.15;17.13;;;;;;;12.72;100.00;101481.72;7379992;19;20680;-71
2022/05/25 06:27:15;;;;;;;29.30;16.13;;;;;;;12.64;100.00;101480.72;7380282;19;20105;-71
2022/05/25 06:29:47;;;;;;;34.15;19.13;;;;;;;12.81;100.00;101480.09;7380740;19;20011;-72
2022/05/25 06:32:19;;;;;;;35.72;17.67;;;;;;;12.99;100.00;101485.63;7382116;19;20024;-73
2022/05/25 06:34:50;;;;;;;31.27;17.33;;;;;;;13.24;100.00;101485.13;7380153;19;20014;-73
2022/05/25 06:37:25;;;;;;;31.15;17.75;;;;;;;13.36;100.00;101487.91;7373546;19;20546;-73
2022/05/25 06:39:55;;;;;;;31.65;17.50;;;;;;;13.36;100.00;101487.91;7372773;19;20019;-73
2022/05/25 06:42:25;;;;;;;31.20;16.98;;;;;;;13.60;100.00;101481.13;7369770;19;20361;-74
2022/05/25 06:44:56;;;;;;;31.55;16.83;;;;;;;13.85;100.00;101488.44;7372271;19;20491;-74
2022/05/25 06:47:27;;;;;;;34.20;17.25;;;;;;;14.22;100.00;101489.66;7373497;19;20010;-72
2022/05/25 06:49:57;;;;;;;28.90;16.42;;;;;;;14.48;100.00;101492.53;7372519;19;20119;-73
2022/05/25 06:52:30;;;;;;;29.88;16.38;;;;;;;14.39;100.00;101497.72;7373120;19;20010;-74
2022/05/25 06:55:00;;;;;;;28.40;16.10;;;;;;;14.61;100.00;101488.22;7372572;19;20011;-72
2022/05/25 06:57:30;;;;;;;25.65;16.85;;;;;;;14.83;97.76;101492.75;7374683;19;20044;-72
2022/05/25 07:00:00;;;;;;;26.02;16.10;;;;;;;14.81;97.44;101494.50;7373060;19;20393;-71
2022/05/25 07:02:30;;;;;;;26.55;16.13;;;;;;;14.49;96.03;101499.59;7373602;19;20010;-72
2022/05/25 07:05:00;;;;;;;29.60;17.23;;;;;;;14.37;97.09;101502.09;7369359;19;20031;-71
2022/05/25 07:07:33;;;;;;;26.65;17.85;;;;;;;14.34;98.28;101509.97;7373691;19;20030;-73
2022/05/25 07:10:03;;;;;;;32.60;19.20;;;;;;;14.92;94.94;101502.50;7375913;19;20014;-73
2022/05/25 07:12:33;;;;;;;28.88;17.20;;;;;;;15.37;90.46;101504.50;7370988;19;20014;-72
2022/05/25 07:15:03;;;;;;;28.90;17.60;;;;;;;15.76;90.44;101514.31;7369360;19;20337;-72
2022/05/25 07:17:34;;;;;;;26.08;16.90;;;;;;;15.75;89.86;101509.91;7373509;19;20024;-73
2022/05/25 07:20:06;;;;;;;24.70;14.95;;;;;;;15.53;89.82;101522.19;7372252;19;20007;-74
2022/05/25 07:22:38;;;;;;;23.60;15.45;;;;;;;15.14;89.49;101514.06;7369660;19;20815;-71
2022/05/25 07:25:09;;;;;;;19.90;15.15;;;;;;;15.24;90.57;101507.94;7368283;19;20022;-75
2022/05/25 07:27:39;;;;;;;24.92;15.77;;;;;;;15.80;88.09;101505.53;7371764;19;20018;-72
2022/05/25 07:30:10;;;;;;;25.10;15.65;;;;;;;16.60;86.49;101510.00;7372527;19;20014;-72
2022/05/25 07:32:41;;;;;;;20.15;15.35;;;;;;;16.78;82.08;101511.75;7368110;19;20018;-72
2022/05/25 07:35:13;;;;;;;25.45;15.13;;;;;;;17.02;80.42;101505.53;7371204;19;20052;-72
2022/05/25 07:37:51;;;;;;;21.88;14.73;;;;;;;17.11;79.41;101520.50;7369247;19;20250;-74
2022/05/25 07:40:26;;;;;;;18.70;13.27;;;;;;;16.70;80.64;101521.47;7373551;19;20152;-72
2022/05/25 07:43:04;;;;;;;21.10;12.75;;;;;;;16.63;81.40;101519.72;7368955;19;20014;-72
2022/05/25 07:45:35;;;;;;;20.23;12.10;;;;;;;16.26;81.41;101517.06;7368668;19;20014;-72
2022/05/25 07:48:05;;;;;;;18.92;11.73;;;;;;;16.40;81.60;101514.41;7369222;19;20049;-73
2022/05/25 07:50:38;;;;;;;16.17;9.98;;;;;;;16.69;77.62;101522.34;7374316;19;20025;-72
2022/05/25 07:55:57;;;;;;;13.50;8.93;;;;;;;17.61;75.64;101510.59;7372869;19;20010;-73
2022/05/25 07:58:27;;;;;;;15.40;8.90;;;;;;;17.19;74.67;101518.72;7376090;19;20019;-73
2022/05/25 08:00:58;;;;;;;15.90;7.35;;;;;;;16.89;72.42;101524.97;7374680;19;20101;-73
2022/05/25 08:06:10;;;;;;;12.57;7.00;;;;;;;16.65;74.18;101532.06;7372413;19;20011;-73
2022/05/25 08:08:46;;;;;;;11.77;6.32;;;;;;;16.84;72.89;101516.16;7374693;19;20014;-73
2022/05/25 08:11:20;;;;;;;13.40;6.30;;;;;;;16.45;71.16;101539.13;7372863;19;20010;-74
2022/05/25 08:13:54;;;;;;;12.95;6.38;;;;;;;16.64;70.63;101535.59;7382901;19;20479;-72
2022/05/25 08:16:24;;;;;;;11.63;7.18;;;;;;;16.54;72.81;101538.25;7382352;19;20430;-72
2022/05/25 08:18:57;;;;;;;16.05;6.30;;;;;;;16.19;74.38;101535.59;7376959;19;20018;-72
2022/05/25 08:21:26;;;;;;;11.50;5.93;;;;;;;16.64;70.81;101525.00;7380679;19;20029;-73
2022/05/25 08:24:18;;;;;;;10.25;4.68;;;;;;;16.84;67.77;101522.34;7381868;19;20029;-73
2022/05/25 08:26:48;;;;;;;11.65;4.85;;;;;;;17.36;68.62;101524.84;7379793;19;20014;-73
2022/05/25 08:29:19;;;;;;;13.13;4.85;;;;;;;17.93;68.13;101526.34;7378344;19;20018;-73
2022/05/25 08:31:50;;;;;;;7.80;4.05;;;;;;;18.39;64.93;101519.84;7380286;19;20019;-73
2022/05/25 08:34:20;;;;;;;10.35;3.92;;;;;;;18.25;62.91;101523.47;7380749;19;20124;-73
2022/05/25 08:36:51;;;;;;;10.50;4.38;;;;;;;18.66;61.84;101524.94;7384798;19;20015;-74
2022/05/25 08:39:24;;;;;;;7.35;3.67;;;;;;;18.76;62.53;101520.41;7383365;19;20018;-72
2022/05/25 08:41:59;;;;;;;7.80;3.40;;;;;;;18.59;60.56;101526.75;7382608;19;20018;-73
2022/05/25 08:44:30;;;;;;;6.72;3.38;;;;;;;18.66;61.30;101524.06;7380006;19;20069;-72
2022/05/25 08:47:02;;;;;;;7.65;3.60;;;;;;;18.60;60.64;101530.28;7379096;19;20386;-73
2022/05/25 08:49:34;;;;;;;9.93;3.00;;;;;;;19.03;59.42;101520.13;7384664;19;20007;-72
2022/05/25 08:52:07;;;;;;;7.43;3.15;;;;;;;18.74;57.42;101530.16;7380866;19;20061;-73
2022/05/25 08:54:39;;;;;;;7.22;2.85;;;;;;;18.69;58.97;101524.03;7379591;19;20542;-73
2022/05/25 08:57:15;;;;;;;6.15;3.08;;;;;;;18.23;59.00;101513.75;7375697;19;20015;-71
2022/05/25 08:59:52;;;;;;;7.43;2.58;;;;;;;18.17;59.56;101519.13;7380153;19;20010;-72
2022/05/25 09:02:30;;;;;;;5.35;2.50;;;;;;;18.42;59.84;101520.69;7380087;19;20018;-72
2022/05/25 09:05:06;;;;;;;7.63;2.47;;;;;;;18.05;57.10;101511.22;7377496;19;20017;-73
2022/05/25 09:07:45;;;;;;;5.72;1.95;;;;;;;17.72;56.45;101525.59;7375776;19;20086;-73
2022/05/25 09:10:20;;;;;;;7.03;2.22;;;;;;;17.21;57.10;101531.09;7379419;19;20015;-73
2022/05/25 09:12:52;;;;;;;5.60;1.80;;;;;;;16.99;58.74;101542.63;7378511;19;20007;-73
2022/05/25 09:15:25;;;;;;;7.60;2.30;;;;;;;16.79;58.52;101544.41;7374787;19;20026;-73
2022/05/25 09:18:01;;;;;;;4.60;2.05;;;;;;;16.68;59.69;101550.59;7373621;19;20010;-74
2022/05/25 09:20:34;;;;;;;3.92;1.60;;;;;;;16.57;60.64;101544.44;7377525;19;20053;-72
2022/05/25 09:23:04;;;;;;;;;;;;;;;16.87;60.65;101551.47;7378875;19;20039;-72
2022/05/25 09:25:37;;;;;;;3.65;1.50;;;;;;;16.76;59.63;101555.00;7376996;19;21210;-72
2022/05/25 09:28:12;;;;;;;4.70;1.60;;;;;;;16.89;60.17;101562.06;7376496;19;20014;-72
2022/05/25 09:30:44;;;;;;;3.72;2.00;;;;;;;17.28;58.54;101569.06;7378891;19;20051;-73
2022/05/25 09:33:21;;;;;;;4.30;1.77;;;;;;;17.15;56.66;101554.97;7376233;19;20014;-73
2022/05/25 09:35:56;;;;;;;2.17;1.40;;;;;;;16.98;56.65;101562.94;7378872;19;20037;-73
2022/05/25 09:38:32;;;;;;;5.32;1.52;;;;;;;16.81;55.82;101559.44;7380562;19;20022;-73
2022/05/25 09:41:09;;;;;;;4.20;1.70;;;;;;;16.59;55.70;101563.84;7379189;19;20010;-73
2022/05/25 09:43:39;;;;;;;3.40;1.55;;;;;;;16.92;56.16;101567.38;7376695;19;20019;-74
2022/05/25 09:46:14;;;;;;;8.02;2.10;;;;;;;17.56;54.58;101561.91;7377171;19;20352;-73
2022/05/25 09:48:51;;;;;;;4.70;1.65;;;;;;;17.92;52.65;101569.69;7376159;19;20014;-72
2022/05/25 09:51:27;;;;;;;6.68;1.90;;;;;;;17.92;52.92;101569.69;7379774;19;20011;-72
2022/05/25 09:54:02;;;;;;;4.63;1.67;;;;;;;18.19;52.12;101566.00;7378990;19;20010;-73
2022/05/25 09:56:39;;;;;;;6.63;2.03;;;;;;;18.30;52.78;101568.59;7376923;19;20006;-73
2022/05/25 09:59:23;;;;;;;6.70;1.65;;;;;;;18.75;51.94;101569.13;7377972;19;20259;-73
2022/05/25 10:01:54;;;;;;;1.65;1.30;;;;;;;18.35;51.91;101584.47;7380379;19;20877;-73
2022/05/25 10:04:38;;;;;;;3.83;1.33;;;;;;;17.90;52.47;101574.13;7383751;19;20011;-72
2022/05/25 10:07:20;;;;;;;3.60;1.40;;;;;;;18.01;52.87;101584.69;7378697;19;20102;-72
2022/05/25 10:09:53;;;;;;;3.83;1.45;;;;;;;17.93;52.91;101578.53;7378953;19;20157;-72
2022/05/25 10:12:32;;;;;;;;;;;;;;;18.41;52.94;101584.44;7379587;19;20018;-72
2022/05/25 10:15:06;;;;;;;4.50;1.40;;;;;;;18.23;52.19;101574.81;7377163;19;19926;-72
2022/05/25 10:17:39;;;;;;;6.93;1.80;;;;;;;18.55;51.48;101582.56;7373967;19;20010;-72
2022/05/25 10:20:24;;;;;;;7.70;1.65;;;;;;;18.46;50.67;101579.97;7381403;19;20011;-73
2022/05/25 10:23:04;;;;;;;3.15;1.48;;;;;;;18.63;50.96;101588.72;7373902;19;20017;-73
2022/05/25 10:25:38;;;;;;;4.65;1.70;;;;;;;18.13;52.33;101581.97;7377354;19;20043;-74
2022/05/25 10:28:24;;;;;;;2.47;1.40;;;;;;;18.36;51.51;101572.97;7380134;19;20018;-74
2022/05/25 10:36:56;;;;;;;2.67;1.25;;;;;;;19.48;49.71;101581.66;7384959;19;20033;-72
2022/05/25 10:39:35;;;;;;;4.43;1.35;;;;;;;19.77;49.22;101581.31;7378620;19;20011;-72
2022/05/25 10:42:17;;;;;;;6.50;1.42;;;;;;;19.75;48.53;101580.50;7379741;19;20011;-72
2022/05/25 10:45:04;;;;;;;3.83;1.25;;;;;;;19.30;48.05;101592.50;7379565;19;20014;-73
2022/05/25 10:47:46;;;;;;;2.83;1.23;;;;;;;19.33;48.72;101597.78;7378753;19;20126;-72
2022/05/25 10:50:26;;;;;;;1.30;1.02;;;;;;;19.57;48.97;101584.25;7375388;19;20070;-74
2022/05/25 10:53:04;;;;;;;3.03;1.25;;;;;;;18.48;49.55;101584.38;7383894;19;20047;-74
2022/05/25 10:55:39;;;;;;;4.68;1.23;;;;;;;19.10;49.37;101590.94;7385995;19;20094;-75
2022/05/25 10:58:27;;;;;;;2.58;1.10;;;;;;;19.30;48.56;101584.53;7384948;19;20010;-75
2022/05/25 11:01:19;;;;;;;5.28;1.40;;;;;;;19.21;49.24;101583.72;7379955;19;20015;-73
2022/05/25 11:04:05;;;;;;;3.58;1.20;;;;;;;19.39;49.59;101576.47;7379957;19;20019;-76
2022/05/25 11:06:52;;;;;;;7.03;2.40;;;;;;;19.86;48.93;101573.22;7378941;19;20027;-76
2022/05/25 11:09:48;;;;;;;4.20;1.95;;;;;;;19.84;48.58;101573.22;7379216;19;20017;-79
2022/05/25 11:12:28;;;;;;;5.43;1.40;;;;;;;19.46;49.21;101565.72;7380350;19;20110;-78
2022/05/25 11:15:13;;;;;;;2.80;1.35;;;;;;;19.63;48.43;101576.19;7381062;19;20014;-77
2022/05/25 11:18:11;;;;;;;3.10;1.13;;;;;;;19.69;47.65;101569.91;7376796;19;20018;-76
2022/05/25 11:20:48;;;;;;;;;;;;;;;19.01;47.95;101579.50;7382409;19;20022;-76
2022/05/25 11:23:34;;;;;;;2.58;1.35;;;;;;;18.83;48.98;101580.56;7379757;19;19921;-77
2022/05/25 11:26:28;;;;;;;7.00;1.58;;;;;;;18.53;49.40;101569.28;7378078;19;20010;-77
2022/05/25 11:29:27;;;;;;;7.75;1.60;;;;;;;18.52;50.41;101575.50;7373871;19;20271;-77
2022/05/25 11:32:02;;;;;;;6.70;2.17;;;;;;;18.56;50.73;101568.38;7377356;19;20597;-77
2022/05/25 11:34:49;;;;;;;2.55;1.25;;;;;;;18.90;50.49;101567.19;7379591;19;20010;-78
2022/05/25 11:37:36;;;;;;;3.97;1.65;;;;;;;18.88;49.49;101570.78;7376609;19;20021;-75
2022/05/25 11:40:19;;;;;;;4.45;1.40;;;;;;;19.23;48.62;101571.31;7381337;19;20014;-76
2022/05/25 11:43:05;;;;;;;4.20;1.42;;;;;;;19.14;49.14;101555.44;7380974;19;20018;-76
2022/05/25 11:45:50;;;;;;;6.93;1.55;;;;;;;19.56;48.57;101554.09;7378372;19;20014;-76
2022/05/25 11:49:01;;;;;;;4.45;2.00;;;;;;;19.57;49.74;101550.56;7376000;19;20472;-76
2022/05/25 11:51:45;;;;;;;5.68;2.08;;;;;;;19.43;48.84;101548.91;7375818;19;20031;-74
2022/05/25 11:54:32;;;;;;;3.88;1.90;;;;;;;19.09;49.01;101551.06;7373003;19;20023;-75
2022/05/25 11:57:05;;;;;;;;;;;;;;;19.13;48.25;101553.69;7379968;19;20014;-76
2022/05/25 12:00:04;;;;;;;3.35;2.03;;;;;;;19.67;48.98;101561.97;7383184;19;19946;-76
2022/05/25 12:03:11;;;;;;;5.57;2.00;;;;;;;19.60;48.47;101549.63;7382437;19;20044;-76
2022/05/25 12:06:00;;;;;;;3.95;2.15;;;;;;;19.16;48.79;101544.78;7377025;19;20013;-78
2022/05/25 12:08:52;;;;;;;7.60;2.35;;;;;;;19.52;49.30;101552.38;7377838;19;20018;-74
2022/05/25 12:11:34;;;;;;;5.18;2.08;;;;;;;19.48;49.46;101561.28;7376881;19;20014;-73